JST904 YSSY-YMML
Flight info
| Callsign | JST904 |
|---|---|
| Flight time | N/A |
| Altitude | 36000 |
| Route | WOL H65 LEECE Q29 ML |
| Aircraft | A20N/M-SDE2E3FGHIRWXY/LB1 |
Departure
| Time | 2026-05-06 23:36 |
|---|---|
| Airport | Sydney Kingsford Smith International Airport (YSSY) |
Arrival
| Time | N/A |
|---|---|
| Airport | Melbourne Airport (YMML) |
| Time | Latitude | Longitude | Altitude | Speed | Heading |
|---|---|---|---|---|---|
| 2026-05-06 23:13 | -33.93702 | 151.17984 | 32 ft | 0 kts | 335° |
| 2026-05-06 23:21 | -33.93713 | 151.17990 | 34 ft | 3 kts | 335° |
| 2026-05-06 23:21 | -33.93731 | 151.18000 | 34 ft | 3 kts | 333° |
| 2026-05-06 23:21 | -33.93749 | 151.18012 | 34 ft | 3 kts | 324° |
| 2026-05-06 23:22 | -33.93764 | 151.18027 | 34 ft | 3 kts | 310° |
| 2026-05-06 23:22 | -33.93774 | 151.18046 | 34 ft | 3 kts | 278° |
| 2026-05-06 23:22 | -33.93775 | 151.18059 | 34 ft | 1 kts | 254° |
| 2026-05-06 23:24 | -33.93778 | 151.18047 | 34 ft | 6 kts | 254° |
| 2026-05-06 23:24 | -33.93798 | 151.17958 | 30 ft | 17 kts | 254° |
| 2026-05-06 23:24 | -33.93836 | 151.17802 | 27 ft | 22 kts | 253° |
| 2026-05-06 23:25 | -33.93892 | 151.17632 | 22 ft | 21 kts | 214° |
| 2026-05-06 23:25 | -33.94021 | 151.17643 | 25 ft | 18 kts | 167° |
| 2026-05-06 23:25 | -33.94141 | 151.17677 | 27 ft | 17 kts | 167° |
| 2026-05-06 23:25 | -33.94257 | 151.17712 | 24 ft | 15 kts | 165° |
| 2026-05-06 23:26 | -33.94346 | 151.17740 | 25 ft | 14 kts | 165° |
| 2026-05-06 23:26 | -33.94434 | 151.17768 | 26 ft | 15 kts | 165° |
| 2026-05-06 23:26 | -33.94569 | 151.17806 | 27 ft | 18 kts | 168° |
| 2026-05-06 23:26 | -33.94693 | 151.17839 | 26 ft | 19 kts | 168° |
| 2026-05-06 23:27 | -33.94796 | 151.17865 | 26 ft | 13 kts | 168° |
| 2026-05-06 23:27 | -33.94887 | 151.17888 | 28 ft | 13 kts | 168° |
| 2026-05-06 23:27 | -33.94971 | 151.17910 | 28 ft | 11 kts | 168° |
| 2026-05-06 23:27 | -33.95040 | 151.17928 | 28 ft | 10 kts | 168° |
| 2026-05-06 23:28 | -33.95110 | 151.17968 | 29 ft | 12 kts | 127° |
| 2026-05-06 23:28 | -33.95109 | 151.18070 | 29 ft | 17 kts | 77° |
| 2026-05-06 23:28 | -33.95079 | 151.18240 | 28 ft | 22 kts | 77° |
| 2026-05-06 23:28 | -33.95046 | 151.18415 | 29 ft | 16 kts | 79° |
| 2026-05-06 23:29 | -33.95093 | 151.18519 | 30 ft | 15 kts | 142° |
| 2026-05-06 23:29 | -33.95170 | 151.18602 | 29 ft | 15 kts | 137° |
| 2026-05-06 23:29 | -33.95252 | 151.18688 | 29 ft | 18 kts | 148° |
| 2026-05-06 23:29 | -33.95386 | 151.18740 | 27 ft | 21 kts | 167° |
| 2026-05-06 23:30 | -33.95533 | 151.18778 | 30 ft | 21 kts | 168° |
| 2026-05-06 23:30 | -33.95673 | 151.18815 | 28 ft | 20 kts | 167° |
| 2026-05-06 23:30 | -33.95807 | 151.18850 | 29 ft | 19 kts | 168° |
| 2026-05-06 23:30 | -33.95934 | 151.18882 | 30 ft | 18 kts | 168° |
| 2026-05-06 23:31 | -33.96060 | 151.18915 | 29 ft | 19 kts | 167° |
| 2026-05-06 23:31 | -33.96187 | 151.18948 | 29 ft | 19 kts | 168° |
| 2026-05-06 23:31 | -33.96310 | 151.18980 | 29 ft | 18 kts | 168° |
| 2026-05-06 23:31 | -33.96443 | 151.19014 | 25 ft | 21 kts | 168° |
| 2026-05-06 23:32 | -33.96611 | 151.19058 | 22 ft | 25 kts | 168° |
| 2026-05-06 23:32 | -33.96698 | 151.19078 | 22 ft | 13 kts | 174° |
| 2026-05-06 23:32 | -33.96808 | 151.19069 | 22 ft | 16 kts | 177° |
| 2026-05-06 23:32 | -33.96917 | 151.19093 | 22 ft | 15 kts | 168° |
| 2026-05-06 23:33 | -33.96984 | 151.19110 | 24 ft | 14 kts | 168° |
| 2026-05-06 23:33 | -33.97106 | 151.19148 | 28 ft | 13 kts | 147° |
| 2026-05-06 23:33 | -33.97126 | 151.19244 | 25 ft | 12 kts | 78° |
| 2026-05-06 23:33 | -33.97108 | 151.19343 | 25 ft | 11 kts | 71° |
| 2026-05-06 23:34 | -33.97045 | 151.19373 | 25 ft | 11 kts | 347° |
| 2026-05-06 23:34 | -33.97028 | 151.19368 | 24 ft | 0 kts | 347° |
| 2026-05-06 23:35 | -33.96911 | 151.19336 | 22 ft | 48 kts | 347° |
| 2026-05-06 23:35 | -33.96358 | 151.19192 | 29 ft | 113 kts | 348° |
| 2026-05-06 23:36 | -33.95412 | 151.18959 | 108 ft | 154 kts | 346° |
| 2026-05-06 23:36 | -33.94398 | 151.18656 | 803 ft | 147 kts | 339° |
| 2026-05-06 23:36 | -33.93399 | 151.18387 | 1492 ft | 150 kts | 343° |
| 2026-05-06 23:36 | -33.92297 | 151.18424 | 2207 ft | 174 kts | 11° |
| 2026-05-06 23:37 | -33.91324 | 151.19427 | 2762 ft | 202 kts | 66° |
| 2026-05-06 23:37 | -33.91093 | 151.21182 | 3224 ft | 225 kts | 92° |
| 2026-05-06 23:37 | -33.91521 | 151.23011 | 3633 ft | 232 kts | 131° |
| 2026-05-06 23:37 | -33.92777 | 151.24084 | 4085 ft | 233 kts | 172° |
| 2026-05-06 23:38 | -33.94402 | 151.23942 | 4526 ft | 238 kts | 212° |
| 2026-05-06 23:38 | -33.95669 | 151.22739 | 5379 ft | 236 kts | 232° |
| 2026-05-06 23:38 | -33.96670 | 151.21156 | 6350 ft | 238 kts | 242° |
| 2026-05-06 23:38 | -33.97384 | 151.19344 | 7219 ft | 241 kts | 256° |
| 2026-05-06 23:39 | -33.97582 | 151.17342 | 8090 ft | 243 kts | 277° |